createdAt,value
2022-08-19T00:00:05.941Z,10.88
2022-08-19T00:02:35.177Z,10.80
2022-08-19T00:05:03.269Z,11.05
2022-08-19T00:07:31.141Z,10.82
2022-08-19T00:09:58.944Z,11.00
2022-08-19T00:12:26.849Z,10.70
2022-08-19T00:14:55.068Z,11.00
2022-08-19T00:17:22.994Z,10.25
2022-08-19T00:19:52.172Z,10.60
2022-08-19T00:22:19.981Z,10.43
2022-08-19T00:24:50.701Z,10.82
2022-08-19T00:27:25.582Z,10.35
2022-08-19T00:29:54.419Z,11.32
2022-08-19T00:32:22.566Z,10.73
2022-08-19T00:34:53.617Z,11.50
2022-08-19T00:37:23.573Z,11.27
2022-08-19T00:39:52.119Z,9.18
2022-08-19T00:42:21.029Z,10.68
2022-08-19T00:44:50.090Z,11.93
2022-08-19T00:47:17.893Z,10.63
2022-08-19T00:49:52.243Z,11.27
2022-08-19T00:52:24.754Z,11.60
2022-08-19T00:54:53.738Z,11.52
2022-08-19T00:57:26.293Z,10.40
2022-08-19T01:00:02.338Z,10.85
2022-08-19T01:02:32.650Z,11.20
2022-08-19T01:05:02.415Z,10.35
2022-08-19T01:07:37.758Z,12.80
2022-08-19T01:10:09.691Z,11.88
2022-08-19T01:12:37.749Z,10.32
2022-08-19T01:15:07.443Z,8.48
2022-08-19T01:17:35.831Z,11.75
2022-08-19T01:20:05.950Z,11.73
2022-08-19T01:22:40.008Z,10.20
2022-08-19T01:27:45.638Z,11.25
2022-08-19T01:30:17.329Z,11.07
2022-08-19T01:32:45.413Z,12.40
2022-08-19T01:35:14.437Z,12.25
2022-08-19T01:37:48.885Z,12.30
2022-08-19T01:40:17.419Z,11.00
2022-08-19T01:42:45.345Z,11.55
2022-08-19T01:45:13.142Z,12.32
2022-08-19T01:47:41.577Z,12.77
2022-08-19T01:50:11.768Z,10.93
2022-08-19T01:52:41.516Z,10.82
2022-08-19T01:55:15.404Z,11.32
2022-08-19T01:57:47.884Z,12.25
2022-08-19T02:00:18.431Z,12.20
2022-08-19T02:02:46.345Z,11.38
2022-08-19T02:05:14.584Z,10.93
2022-08-19T02:07:42.930Z,12.38
2022-08-19T02:10:16.529Z,12.90
2022-08-19T02:12:44.849Z,11.32
2022-08-19T02:15:13.246Z,11.00
2022-08-19T02:17:42.624Z,12.73
2022-08-19T02:20:12.059Z,8.35
2022-08-19T02:22:42.497Z,12.80
2022-08-19T02:25:12.911Z,13.20
2022-08-19T02:27:41.862Z,14.32
2022-08-19T02:30:18.370Z,13.57
2022-08-19T02:32:46.215Z,12.77
2022-08-19T02:35:16.386Z,14.20
2022-08-19T02:37:58.900Z,14.30
2022-08-19T02:40:28.054Z,12.82
2022-08-19T02:42:56.607Z,9.85
2022-08-19T02:45:24.381Z,14.70
2022-08-19T02:47:52.062Z,13.35
2022-08-19T02:50:20.234Z,15.35
2022-08-19T02:52:47.980Z,13.35
2022-08-19T02:55:15.982Z,13.63
2022-08-19T02:57:45.314Z,15.80
2022-08-19T03:00:13.968Z,15.10
2022-08-19T03:02:41.653Z,13.57
2022-08-19T03:05:11.413Z,14.65
2022-08-19T03:07:39.641Z,15.43
2022-08-19T03:10:08.738Z,15.48
2022-08-19T03:12:38.727Z,14.15
2022-08-19T03:15:09.774Z,14.82
2022-08-19T03:17:38.356Z,15.20
2022-08-19T03:20:07.449Z,14.00
2022-08-19T03:22:35.439Z,14.13
2022-08-19T03:25:03.137Z,16.60
2022-08-19T03:27:34.173Z,15.57
2022-08-19T03:30:03.506Z,15.65
2022-08-19T03:32:33.416Z,15.57
2022-08-19T03:35:01.475Z,16.08
2022-08-19T03:37:29.425Z,15.60
2022-08-19T03:39:57.356Z,17.13
2022-08-19T03:42:31.900Z,16.17
2022-08-19T03:45:01.192Z,16.77
2022-08-19T03:47:29.133Z,17.15
2022-08-19T03:49:58.676Z,16.50
2022-08-19T03:52:26.449Z,16.40
2022-08-19T03:54:54.304Z,17.17
2022-08-19T03:57:22.137Z,17.50
2022-08-19T04:00:12.525Z,16.60
2022-08-19T04:02:56.486Z,16.60
2022-08-19T04:05:29.385Z,16.88
2022-08-19T04:07:59.740Z,16.83
2022-08-19T04:10:27.600Z,17.52
2022-08-19T04:12:55.418Z,16.85
2022-08-19T04:15:23.238Z,17.65
2022-08-19T04:17:51.465Z,17.35
2022-08-19T04:20:19.442Z,17.13
2022-08-19T04:22:48.861Z,17.73
2022-08-19T04:25:16.847Z,17.42
2022-08-19T04:27:47.239Z,16.35
2022-08-19T04:30:15.637Z,17.33
2022-08-19T04:32:44.560Z,17.80
2022-08-19T04:35:17.557Z,17.55
2022-08-19T04:37:48.622Z,13.35
2022-08-19T04:40:34.016Z,17.92
2022-08-19T04:43:02.019Z,17.65
2022-08-19T04:45:39.465Z,17.17
2022-08-19T04:48:26.392Z,18.08
2022-08-19T04:50:58.530Z,17.63
2022-08-19T04:53:29.571Z,15.73
2022-08-19T04:55:58.346Z,17.42
2022-08-19T04:58:28.428Z,17.15
2022-08-19T05:00:57.024Z,17.30
2022-08-19T05:03:28.792Z,16.67
2022-08-19T05:05:59.364Z,17.58
2022-08-19T05:08:31.122Z,16.00
2022-08-19T05:10:59.523Z,17.95
2022-08-19T05:13:27.714Z,17.98
2022-08-19T05:15:57.162Z,19.17
2022-08-19T05:18:42.740Z,17.08
2022-08-19T05:21:29.910Z,18.15
2022-08-19T05:23:59.290Z,16.48
2022-08-19T05:26:27.990Z,15.38
2022-08-19T05:28:56.196Z,16.60
2022-08-19T05:31:24.060Z,18.00
2022-08-19T05:33:51.809Z,16.35
2022-08-19T05:36:20.797Z,17.30
2022-08-19T05:38:50.981Z,17.88
2022-08-19T05:41:20.406Z,17.52
2022-08-19T05:43:48.534Z,14.07
2022-08-19T05:46:20.044Z,15.27
2022-08-19T05:48:57.368Z,17.92
2022-08-19T05:51:28.942Z,17.83
2022-08-19T05:53:57.234Z,16.98
2022-08-19T05:56:26.961Z,17.23
2022-08-19T05:58:55.110Z,19.27
2022-08-19T06:01:23.151Z,19.02
2022-08-19T06:03:50.957Z,17.88
2022-08-19T06:06:20.065Z,16.50
2022-08-19T06:08:51.070Z,14.93
2022-08-19T06:11:22.588Z,19.50
2022-08-19T06:13:59.415Z,18.95
2022-08-19T06:16:28.706Z,16.60
2022-08-19T06:18:58.056Z,16.92
2022-08-19T06:21:28.863Z,17.75
2022-08-19T06:23:58.052Z,18.58
2022-08-19T06:26:27.384Z,16.42
2022-08-19T06:28:56.655Z,17.85
2022-08-19T06:31:28.038Z,16.75
2022-08-19T06:33:56.174Z,17.52
2022-08-19T06:36:28.043Z,17.77
2022-08-19T06:38:56.036Z,17.58
2022-08-19T06:41:23.894Z,17.20
2022-08-19T06:43:53.976Z,17.08
2022-08-19T06:46:25.883Z,17.35
2022-08-19T06:48:54.434Z,16.73
2022-08-19T06:51:24.764Z,17.42
2022-08-19T06:53:54.628Z,17.08
2022-08-19T06:56:31.880Z,17.40
2022-08-19T06:59:00.295Z,16.77
2022-08-19T07:01:30.205Z,16.08
2022-08-19T07:03:58.606Z,16.15
2022-08-19T07:06:43.420Z,15.95
2022-08-19T07:09:18.580Z,15.00
2022-08-19T07:11:48.342Z,15.43
2022-08-19T07:14:19.802Z,15.60
2022-08-19T07:16:52.387Z,15.52
2022-08-19T07:19:21.234Z,14.98
2022-08-19T07:21:50.922Z,15.63
2022-08-19T07:24:19.389Z,15.10
2022-08-19T07:26:51.764Z,15.27
2022-08-19T07:29:24.062Z,14.43
2022-08-19T07:31:56.832Z,15.38
2022-08-19T07:34:25.597Z,13.27
2022-08-19T07:36:55.373Z,14.73
2022-08-19T07:39:26.996Z,13.05
2022-08-19T07:41:55.499Z,14.55
2022-08-19T07:44:24.197Z,13.98
2022-08-19T07:46:56.575Z,13.65
2022-08-19T07:49:25.223Z,14.73
2022-08-19T07:51:55.835Z,13.85
2022-08-19T07:54:25.574Z,14.45
2022-08-19T07:56:53.556Z,13.02
2022-08-19T07:59:24.389Z,13.93
2022-08-19T08:01:54.792Z,13.98
2022-08-19T08:04:40.611Z,14.30
2022-08-19T08:07:31.610Z,13.25
2022-08-19T08:10:00.489Z,13.23
2022-08-19T08:12:35.641Z,13.82
2022-08-19T08:15:08.251Z,13.38
2022-08-19T08:17:49.690Z,12.50
2022-08-19T08:20:20.535Z,13.23
2022-08-19T08:23:09.565Z,12.75
2022-08-19T08:25:38.865Z,13.73
2022-08-19T08:28:08.431Z,13.20
2022-08-19T08:30:42.392Z,12.90
2022-08-19T08:35:51.409Z,12.60
2022-08-19T08:38:19.458Z,10.43
2022-08-19T08:40:51.505Z,12.48
2022-08-19T08:43:27.649Z,13.15
2022-08-19T08:46:04.794Z,12.95
2022-08-19T08:48:41.870Z,12.73
2022-08-19T08:51:14.395Z,12.60
2022-08-19T08:53:51.280Z,13.23
2022-08-19T08:56:24.857Z,11.63
2022-08-19T08:58:58.473Z,13.18
2022-08-19T09:01:30.494Z,12.57
2022-08-19T09:04:02.795Z,13.98
2022-08-19T09:06:40.827Z,13.27
2022-08-19T09:09:18.675Z,12.55
2022-08-19T09:11:58.702Z,14.00
2022-08-19T09:14:52.555Z,12.55
2022-08-19T09:17:31.616Z,11.90
2022-08-19T09:20:09.088Z,12.15
2022-08-19T09:22:38.054Z,11.90
2022-08-19T09:25:08.988Z,11.88
2022-08-19T09:27:43.174Z,9.90
2022-08-19T09:30:16.421Z,12.02
2022-08-19T09:32:44.873Z,12.88
2022-08-19T09:35:16.105Z,11.07
2022-08-19T09:37:44.844Z,11.63
2022-08-19T09:40:15.470Z,11.80
2022-08-19T09:42:50.033Z,10.55
2022-08-19T09:45:22.878Z,11.05
2022-08-19T09:47:53.838Z,11.35
2022-08-19T09:50:25.783Z,10.57
2022-08-19T09:52:57.987Z,11.85
2022-08-19T09:55:32.015Z,11.85
2022-08-19T09:58:02.962Z,11.40
2022-08-19T10:00:31.182Z,11.00
2022-08-19T10:02:59.181Z,10.70
2022-08-19T10:05:48.457Z,10.05
2022-08-19T10:08:17.574Z,9.63
2022-08-19T10:10:47.038Z,9.38
2022-08-19T10:13:17.884Z,9.02
2022-08-19T10:15:47.313Z,9.70
2022-08-19T10:18:17.652Z,9.77
2022-08-19T10:20:51.320Z,9.50
2022-08-19T10:23:21.278Z,8.48
2022-08-19T10:25:49.890Z,9.13
2022-08-19T10:28:19.395Z,7.97
2022-08-19T10:30:48.862Z,7.80
2022-08-19T10:33:38.807Z,7.63
2022-08-19T10:36:10.515Z,7.78
2022-08-19T10:38:39.449Z,8.48
2022-08-19T10:41:20.510Z,8.32
2022-08-19T10:43:49.015Z,8.23
2022-08-19T10:46:17.932Z,7.25
2022-08-19T10:48:47.255Z,7.93
2022-08-19T10:51:47.885Z,7.82
2022-08-19T10:54:16.578Z,7.45
2022-08-19T10:56:52.413Z,7.50
2022-08-19T10:59:21.918Z,7.68
2022-08-19T11:01:55.711Z,7.95
2022-08-19T11:04:28.891Z,8.35
2022-08-19T11:06:58.846Z,8.68
2022-08-19T11:09:33.621Z,8.60
2022-08-19T11:12:02.779Z,8.60
2022-08-19T11:14:34.016Z,8.65
2022-08-19T11:17:02.683Z,8.68
2022-08-19T11:19:30.546Z,8.45
2022-08-19T11:22:02.334Z,8.65
2022-08-19T11:24:32.745Z,8.32
2022-08-19T11:27:05.409Z,8.93
2022-08-19T11:29:35.313Z,8.45
2022-08-19T11:32:06.649Z,8.52
2022-08-19T11:34:38.141Z,8.90
2022-08-19T11:37:09.524Z,9.00
2022-08-19T11:39:38.721Z,7.80
2022-08-19T11:42:28.972Z,8.88
2022-08-19T11:44:56.809Z,7.85
2022-08-19T11:47:25.037Z,8.20
2022-08-19T11:49:54.375Z,8.13
2022-08-19T11:52:23.580Z,7.60
2022-08-19T11:54:51.324Z,7.75
2022-08-19T11:57:20.655Z,7.50
2022-08-19T11:59:53.540Z,7.28
2022-08-19T12:02:22.559Z,6.40
2022-08-19T12:04:50.570Z,7.43
2022-08-19T12:07:18.663Z,7.22
2022-08-19T12:09:48.658Z,7.57
2022-08-19T12:12:17.325Z,7.25
2022-08-19T12:14:47.342Z,7.30
2022-08-19T12:17:15.825Z,6.85
2022-08-19T12:19:43.611Z,7.18
2022-08-19T12:22:11.422Z,7.00
2022-08-19T12:24:39.222Z,7.30
2022-08-19T12:27:12.569Z,6.50
2022-08-19T12:32:12.038Z,6.03
2022-08-19T12:34:40.470Z,5.68
2022-08-19T12:37:10.197Z,5.57
2022-08-19T12:39:40.830Z,6.03
2022-08-19T12:42:10.848Z,5.70
2022-08-19T12:44:41.648Z,6.07
2022-08-19T12:47:12.110Z,5.63
2022-08-19T12:49:53.760Z,5.80
2022-08-19T12:52:24.546Z,5.43
2022-08-19T12:54:53.999Z,5.47
2022-08-19T12:57:32.317Z,5.18
2022-08-19T13:00:04.875Z,5.72
2022-08-19T13:02:38.641Z,6.38
2022-08-19T13:05:09.564Z,6.28
2022-08-19T13:07:38.164Z,6.00
2022-08-19T13:10:07.595Z,5.82
2022-08-19T13:12:37.098Z,5.68
2022-08-19T13:15:10.943Z,5.47
2022-08-19T13:17:40.095Z,6.32
2022-08-19T13:20:09.658Z,6.03
2022-08-19T13:22:38.726Z,6.43
2022-08-19T13:25:08.134Z,6.20
2022-08-19T13:27:38.470Z,5.57
2022-08-19T13:30:25.741Z,6.20
2022-08-19T13:33:10.999Z,5.78
2022-08-19T13:35:39.183Z,6.40
2022-08-19T13:38:12.116Z,6.30
2022-08-19T13:40:41.396Z,6.20
2022-08-19T13:43:17.535Z,6.25
2022-08-19T13:45:53.620Z,8.63
2022-08-19T13:48:21.931Z,9.43
2022-08-19T13:50:49.782Z,9.20
2022-08-19T13:53:18.544Z,8.75
2022-08-19T13:55:46.620Z,8.95
2022-08-19T13:58:16.423Z,8.80
2022-08-19T14:00:46.904Z,9.05
2022-08-19T14:03:15.273Z,7.65
2022-08-19T14:05:43.101Z,7.60
2022-08-19T14:08:11.135Z,7.35
2022-08-19T14:10:38.977Z,6.63
2022-08-19T14:13:06.841Z,7.18
2022-08-19T14:15:36.043Z,7.60
2022-08-19T14:18:03.934Z,7.00
2022-08-19T14:20:31.765Z,7.40
2022-08-19T14:23:00.262Z,6.82
2022-08-19T14:25:30.698Z,7.03
2022-08-19T14:27:59.577Z,7.18
2022-08-19T14:30:29.857Z,6.90
2022-08-19T14:33:00.873Z,7.22
2022-08-19T14:35:29.902Z,7.10
2022-08-19T14:37:58.716Z,7.25
2022-08-19T14:40:29.733Z,7.05
2022-08-19T14:43:00.160Z,6.97
2022-08-19T14:45:29.089Z,6.38
2022-08-19T14:47:57.010Z,7.03
2022-08-19T14:50:26.214Z,6.70
2022-08-19T14:53:03.591Z,6.30
2022-08-19T14:55:34.735Z,5.90
2022-08-19T14:58:02.966Z,5.70
2022-08-19T15:00:36.909Z,5.93
2022-08-19T15:03:05.159Z,5.78
2022-08-19T15:05:34.564Z,6.15
2022-08-19T15:08:05.111Z,5.57
2022-08-19T15:10:32.977Z,6.05
2022-08-19T15:13:01.220Z,5.88
2022-08-19T15:15:29.472Z,5.82
2022-08-19T15:18:03.038Z,5.68
2022-08-19T15:20:31.761Z,5.68
2022-08-19T15:23:01.130Z,5.38
2022-08-19T15:25:29.358Z,5.15
2022-08-19T15:27:57.341Z,5.20
2022-08-19T15:30:27.956Z,5.28
2022-08-19T15:32:56.907Z,5.53
2022-08-19T15:35:25.548Z,5.25
2022-08-19T15:37:54.870Z,5.07
2022-08-19T15:40:26.380Z,5.30
2022-08-19T15:42:56.410Z,5.22
2022-08-19T15:45:32.714Z,5.05
2022-08-19T15:48:00.574Z,5.53
2022-08-19T15:50:29.018Z,5.00
2022-08-19T15:53:00.796Z,4.90
2022-08-19T15:55:34.686Z,8.18
2022-08-19T15:58:20.560Z,9.95
2022-08-19T16:01:15.493Z,9.90
2022-08-19T16:04:01.817Z,11.68
2022-08-19T16:06:31.362Z,9.98
2022-08-19T16:09:01.800Z,12.27
2022-08-19T16:11:39.338Z,13.07
2022-08-19T16:14:09.358Z,13.00
2022-08-19T16:16:38.382Z,14.27
2022-08-19T16:19:10.396Z,12.43
2022-08-19T16:21:41.779Z,11.93
2022-08-19T16:24:13.110Z,12.95
2022-08-19T16:26:43.752Z,14.10
2022-08-19T16:29:13.051Z,12.63
2022-08-19T16:31:43.344Z,15.07
2022-08-19T16:34:13.237Z,14.50
2022-08-19T16:36:42.113Z,14.10
2022-08-19T16:39:10.943Z,13.50
2022-08-19T16:41:39.426Z,14.13
2022-08-19T16:44:10.156Z,13.38
2022-08-19T16:46:41.564Z,12.88
2022-08-19T16:49:10.663Z,13.32
2022-08-19T16:51:38.516Z,15.23
2022-08-19T16:54:07.076Z,13.40
2022-08-19T16:56:37.374Z,14.77
2022-08-19T16:59:06.588Z,14.00
2022-08-19T17:01:35.804Z,14.48
2022-08-19T17:04:04.162Z,15.10
2022-08-19T17:06:32.069Z,14.10
2022-08-19T17:09:02.042Z,14.30
2022-08-19T17:11:31.588Z,15.35
2022-08-19T17:13:59.531Z,13.40
2022-08-19T17:16:31.930Z,13.48
2022-08-19T17:19:02.729Z,12.85
2022-08-19T17:21:33.934Z,13.10
2022-08-19T17:24:04.728Z,13.57
2022-08-19T17:26:33.104Z,13.10
2022-08-19T17:29:01.592Z,13.73
2022-08-19T17:31:31.528Z,13.57
2022-08-19T17:34:01.505Z,12.88
2022-08-19T17:36:33.875Z,13.10
2022-08-19T17:39:04.140Z,11.90
2022-08-19T17:41:33.988Z,12.60
2022-08-19T17:44:02.260Z,13.80
2022-08-19T17:46:30.697Z,16.38
2022-08-19T17:48:59.341Z,17.45
2022-08-19T17:51:41.946Z,18.40
2022-08-19T17:54:11.974Z,16.17
2022-08-19T17:56:40.453Z,14.90
2022-08-19T17:59:11.818Z,16.10
2022-08-19T18:01:52.281Z,15.85
2022-08-19T18:04:23.241Z,15.52
2022-08-19T18:06:54.414Z,14.38
2022-08-19T18:09:25.316Z,15.15
2022-08-19T18:11:55.531Z,15.82
2022-08-19T18:14:28.057Z,14.50
2022-08-19T18:17:01.685Z,14.73
2022-08-19T18:19:40.711Z,15.77
2022-08-19T18:22:12.984Z,15.07
2022-08-19T18:24:41.567Z,15.70
2022-08-19T18:27:09.998Z,15.23
2022-08-19T18:29:38.667Z,16.10
2022-08-19T18:32:11.998Z,15.45
2022-08-19T18:34:40.541Z,15.90
2022-08-19T18:37:08.361Z,18.80
2022-08-19T18:39:54.790Z,17.75
2022-08-19T18:42:40.641Z,17.80
2022-08-19T18:45:27.935Z,16.80
2022-08-19T18:48:25.729Z,16.23
2022-08-19T18:50:57.151Z,16.38
2022-08-19T18:53:25.992Z,17.13
2022-08-19T18:55:55.675Z,18.52
2022-08-19T18:58:26.390Z,17.08
2022-08-19T19:00:57.154Z,18.88
2022-08-19T19:03:26.461Z,17.38
2022-08-19T19:05:54.446Z,17.85
2022-08-19T19:08:27.051Z,18.60
2022-08-19T19:10:58.929Z,18.55
2022-08-19T19:13:28.618Z,20.40
2022-08-19T19:15:56.865Z,19.27
2022-08-19T19:18:25.148Z,18.70
2022-08-19T19:20:53.067Z,18.25
2022-08-19T19:23:21.838Z,17.70
2022-08-19T19:25:51.312Z,16.55
2022-08-19T19:28:25.425Z,17.20
2022-08-19T19:30:55.120Z,15.70
2022-08-19T19:33:22.876Z,15.40
2022-08-19T19:35:50.712Z,15.15
2022-08-19T19:38:18.515Z,15.55
2022-08-19T19:40:46.611Z,15.45
2022-08-19T19:43:17.365Z,14.88
2022-08-19T19:45:48.246Z,15.63
2022-08-19T19:48:16.398Z,15.18
2022-08-19T19:50:45.901Z,15.77
2022-08-19T19:53:21.967Z,14.82
2022-08-19T19:55:51.542Z,14.77
2022-08-19T19:58:22.782Z,14.70
2022-08-19T20:00:59.047Z,15.23
2022-08-19T20:03:27.109Z,15.25
2022-08-19T20:05:55.166Z,17.25
2022-08-19T20:08:40.475Z,17.80
2022-08-19T20:11:08.508Z,17.25
2022-08-19T20:13:36.411Z,16.35
2022-08-19T20:16:05.917Z,16.50
2022-08-19T20:18:33.800Z,19.30
2022-08-19T20:21:01.580Z,18.35
2022-08-19T20:23:29.396Z,19.85
2022-08-19T20:25:57.257Z,17.48
2022-08-19T20:28:25.102Z,16.90
2022-08-19T20:30:53.714Z,17.15
2022-08-19T20:33:22.920Z,15.13
2022-08-19T20:35:50.880Z,15.48
2022-08-19T20:38:18.656Z,13.10
2022-08-19T20:40:46.424Z,10.07
2022-08-19T20:43:17.529Z,11.02
2022-08-19T20:45:45.428Z,9.18
2022-08-19T20:48:13.634Z,7.50
2022-08-19T20:50:42.997Z,6.93
2022-08-19T20:53:13.096Z,6.38
2022-08-19T20:55:41.109Z,3.90
2022-08-19T20:58:11.940Z,5.40
2022-08-19T21:00:39.823Z,5.22
2022-08-19T21:03:08.149Z,5.00
2022-08-19T21:05:36.086Z,5.30
2022-08-19T21:08:08.902Z,3.53
2022-08-19T21:10:41.762Z,5.00
2022-08-19T21:13:10.111Z,4.38
2022-08-19T21:15:40.567Z,3.80
2022-08-19T21:18:08.343Z,3.50
2022-08-19T21:20:40.314Z,4.00
2022-08-19T21:23:12.382Z,2.30
2022-08-19T21:25:40.599Z,2.78
2022-08-19T21:28:11.567Z,2.95
2022-08-19T21:30:44.664Z,2.28
2022-08-19T21:33:12.930Z,2.53
2022-08-19T21:35:40.840Z,2.50
2022-08-19T21:38:10.180Z,1.95
2022-08-19T21:40:38.165Z,2.60
2022-08-19T21:43:06.592Z,1.70
2022-08-19T21:45:34.736Z,2.25
2022-08-19T21:48:02.509Z,1.88
2022-08-19T21:50:32.374Z,2.40
2022-08-19T21:53:00.867Z,2.55
2022-08-19T21:55:30.308Z,2.33
2022-08-19T21:57:59.968Z,1.30
2022-08-19T22:00:30.106Z,1.33
2022-08-19T22:03:01.274Z,1.27
2022-08-19T22:05:31.258Z,1.38
2022-08-19T22:07:59.540Z,2.00
2022-08-19T22:10:31.584Z,1.45
2022-08-19T22:13:00.244Z,2.30
2022-08-19T22:15:29.072Z,2.13
2022-08-19T22:17:57.304Z,1.42
2022-08-19T22:20:28.835Z,1.98
2022-08-19T22:22:59.104Z,1.90
2022-08-19T22:25:31.520Z,1.65
2022-08-19T22:28:03.285Z,1.70
2022-08-19T22:30:33.656Z,1.77
2022-08-19T22:33:05.571Z,1.63
2022-08-19T22:35:35.779Z,1.55
2022-08-19T22:38:06.357Z,2.53
2022-08-19T22:40:37.242Z,2.40
2022-08-19T22:43:11.961Z,1.58
2022-08-19T22:45:40.258Z,1.92
2022-08-19T22:48:10.962Z,1.83
2022-08-19T22:50:39.908Z,2.17
2022-08-19T22:53:07.755Z,2.35
2022-08-19T22:55:36.462Z,2.00
2022-08-19T22:58:04.558Z,1.52
2022-08-19T23:00:34.065Z,2.20
2022-08-19T23:03:02.597Z,2.05
2022-08-19T23:05:31.054Z,1.50
2022-08-19T23:07:59.556Z,1.88
2022-08-19T23:10:29.029Z,2.08
2022-08-19T23:12:58.953Z,2.20
2022-08-19T23:15:29.496Z,1.92
2022-08-19T23:18:01.030Z,1.65
2022-08-19T23:20:32.493Z,1.90
2022-08-19T23:23:02.419Z,1.33
2022-08-19T23:25:33.886Z,1.50
2022-08-19T23:28:20.249Z,1.30
2022-08-19T23:30:50.550Z,1.00
2022-08-19T23:33:24.682Z,1.10
2022-08-19T23:38:22.756Z,1.40
2022-08-19T23:40:51.497Z,1.48
2022-08-19T23:43:25.138Z,1.40
2022-08-19T23:45:57.536Z,1.10
2022-08-19T23:48:28.262Z,1.25
2022-08-19T23:50:57.097Z,1.27
2022-08-19T23:53:25.324Z,1.30
2022-08-19T23:55:53.715Z,1.30
2022-08-19T23:58:22.355Z,1.15
